Fairlawn, Ohio
Current Conditions -  °F | °C
As of 11:54 AM on Friday 28 Nov 2014 (Local Time) from KAKR Reporting Station
Overcast Overcast  
Wind Chill: 25°   Ceiling: 10000
Heat Index: 25°   Visibility: 10mi
Dew Point: 13°   Wind: 3mph
Humidity: 60%   Direction: 290°WNW
Pressure: 30.29"   Gusts: NA
Location:  41.0812°N, 81.5191°W
Report Text: KAKR 281654Z AUTO 29003KT 10SM OVC100 M04/M11 A3029 RMK AO2 SLP271 T10391106
Loading
Personal Weather Stations






























Interactive Weather Map New forecast layout! Learn more

10-Day Weather Forecast

Advertisements
Track Severe Weather on mobile